createdAt,value
2018-07-17T00:00:48.493Z,98.48
2018-07-17T00:01:48.292Z,99.99
2018-07-17T00:02:48.496Z,99.53
2018-07-17T00:03:48.309Z,99.49
2018-07-17T00:04:48.303Z,97.52
2018-07-17T00:05:48.307Z,98.00
2018-07-17T00:06:48.307Z,97.81
2018-07-17T00:07:48.311Z,97.90
2018-07-17T00:08:48.515Z,99.34
2018-07-17T00:09:48.530Z,98.38
2018-07-17T00:10:48.324Z,97.61
2018-07-17T00:11:48.525Z,98.48
2018-07-17T00:12:48.413Z,99.34
2018-07-17T00:13:48.330Z,98.86
2018-07-17T00:14:48.331Z,98.28
2018-07-17T00:15:48.338Z,99.34
2018-07-17T00:16:48.339Z,99.91
2018-07-17T00:17:48.547Z,99.24
2018-07-17T00:18:48.349Z,99.15
2018-07-17T00:19:48.351Z,98.96
2018-07-17T00:20:48.351Z,99.99
2018-07-17T00:21:48.358Z,98.28
2018-07-17T00:22:48.565Z,97.81
2018-07-17T00:23:48.374Z,98.00
2018-07-17T00:24:48.365Z,97.61
2018-07-17T00:25:48.571Z,96.27
2018-07-17T00:26:48.373Z,97.04
2018-07-17T00:27:48.391Z,97.23
2018-07-17T00:28:48.377Z,97.81
2018-07-17T00:29:48.379Z,97.81
2018-07-17T00:30:48.597Z,99.63
2018-07-17T00:31:48.589Z,97.90
2018-07-17T00:32:48.597Z,99.24
2018-07-17T00:33:48.404Z,98.96
2018-07-17T00:34:48.397Z,99.73
2018-07-17T00:35:48.619Z,99.99
2018-07-17T00:36:48.413Z,99.99
2018-07-17T00:37:48.620Z,99.05
2018-07-17T00:38:48.645Z,99.99
2018-07-17T00:39:48.416Z,99.91
2018-07-17T00:40:48.420Z,99.91
2018-07-17T00:41:48.433Z,99.99
2018-07-17T00:42:48.434Z,99.99
2018-07-17T00:43:48.428Z,99.99
2018-07-17T00:44:48.428Z,98.67
2018-07-17T00:45:48.635Z,98.19
2018-07-17T00:46:48.437Z,99.99
2018-07-17T00:47:48.648Z,99.96
2018-07-17T00:48:48.660Z,99.99
2018-07-17T00:49:48.445Z,99.99
2018-07-17T00:50:48.459Z,99.05
2018-07-17T00:51:48.451Z,99.34
2018-07-17T00:52:48.480Z,99.99
2018-07-17T00:53:48.486Z,99.99
2018-07-17T00:54:48.474Z,99.99
2018-07-17T00:55:48.476Z,99.99
2018-07-17T00:56:48.485Z,99.99
2018-07-17T00:57:48.471Z,99.99
2018-07-17T00:58:48.492Z,99.99
2018-07-17T00:59:48.493Z,99.99
2018-07-17T01:00:48.701Z,99.99
2018-07-17T01:01:48.498Z,98.67
2018-07-17T01:02:48.493Z,97.90
2018-07-17T01:03:48.502Z,98.77
2018-07-17T01:04:48.713Z,99.24
2018-07-17T01:05:48.498Z,99.99
2018-07-17T01:06:48.503Z,99.99
2018-07-17T01:07:48.506Z,99.99
2018-07-17T01:08:48.509Z,99.99
2018-07-17T01:09:48.516Z,99.99
2018-07-17T01:10:48.515Z,99.99
2018-07-17T01:11:48.518Z,99.99
2018-07-17T01:12:48.724Z,99.99
2018-07-17T01:13:48.532Z,99.99
2018-07-17T01:14:48.529Z,99.99
2018-07-17T01:15:48.735Z,99.99
2018-07-17T01:16:48.548Z,99.99
2018-07-17T01:17:48.539Z,99.99
2018-07-17T01:18:48.556Z,99.82
2018-07-17T01:19:48.555Z,99.99
2018-07-17T01:20:48.752Z,99.99
2018-07-17T01:21:48.564Z,99.99
2018-07-17T01:22:48.557Z,99.99
2018-07-17T01:23:48.761Z,99.99
2018-07-17T01:24:48.573Z,99.99
2018-07-17T01:25:48.577Z,99.99
2018-07-17T01:26:48.567Z,99.99
2018-07-17T01:27:48.583Z,99.99
2018-07-17T01:28:48.776Z,99.99
2018-07-17T01:29:48.783Z,99.99
2018-07-17T01:30:48.581Z,99.99
2018-07-17T01:31:48.591Z,99.99
2018-07-17T01:32:48.600Z,99.99
2018-07-17T01:33:48.591Z,99.99
2018-07-17T01:34:48.607Z,99.99
2018-07-17T01:35:48.609Z,99.99
2018-07-17T01:36:48.601Z,99.99
2018-07-17T01:37:48.604Z,99.99
2018-07-17T01:38:48.607Z,99.99
2018-07-17T01:39:48.609Z,99.99
2018-07-17T01:40:48.612Z,99.99
2018-07-17T01:41:48.630Z,99.99
2018-07-17T01:42:48.832Z,99.99
2018-07-17T01:43:48.824Z,99.99
2018-07-17T01:44:48.638Z,99.99
2018-07-17T01:45:48.861Z,99.99
2018-07-17T01:46:48.657Z,99.99
2018-07-17T01:47:48.647Z,99.99
2018-07-17T01:48:48.850Z,99.99
2018-07-17T01:49:48.654Z,99.99
2018-07-17T01:50:48.671Z,99.99
2018-07-17T01:51:48.671Z,99.99
2018-07-17T01:52:48.656Z,99.99
2018-07-17T01:53:48.668Z,99.99
2018-07-17T01:54:48.680Z,99.99
2018-07-17T01:55:48.671Z,99.99
2018-07-17T01:56:48.679Z,99.99
2018-07-17T01:57:48.882Z,99.99
2018-07-17T01:58:48.671Z,99.99
2018-07-17T01:59:48.874Z,99.99
2018-07-17T02:00:48.684Z,99.99
2018-07-17T02:01:48.897Z,99.99
2018-07-17T02:02:48.887Z,99.99
2018-07-17T02:03:48.700Z,99.99
2018-07-17T02:04:48.696Z,99.99
2018-07-17T02:05:48.898Z,99.99
2018-07-17T02:06:48.699Z,99.99
2018-07-17T02:07:48.699Z,99.99
2018-07-17T02:08:48.703Z,99.99
2018-07-17T02:09:48.706Z,99.99
2018-07-17T02:10:48.712Z,99.99
2018-07-17T02:11:48.913Z,99.99
2018-07-17T02:12:48.916Z,99.99
2018-07-17T02:13:48.716Z,99.99
2018-07-17T02:14:48.924Z,99.99
2018-07-17T02:15:48.926Z,99.99
2018-07-17T02:16:48.927Z,99.99
2018-07-17T02:17:48.732Z,99.99
2018-07-17T02:18:48.819Z,99.99
2018-07-17T02:19:48.748Z,99.99
2018-07-17T02:20:48.954Z,99.99
2018-07-17T02:21:48.947Z,99.99
2018-07-17T02:22:48.759Z,99.99
2018-07-17T02:23:48.749Z,99.99
2018-07-17T02:24:48.763Z,99.99
2018-07-17T02:25:48.757Z,99.99
2018-07-17T02:26:48.772Z,99.99
2018-07-17T02:27:48.976Z,99.99
2018-07-17T02:28:48.769Z,99.99
2018-07-17T02:29:48.784Z,99.99
2018-07-17T02:30:48.990Z,99.99
2018-07-17T02:31:48.774Z,99.99
2018-07-17T02:32:48.790Z,99.99
2018-07-17T02:33:49.015Z,99.99
2018-07-17T02:34:48.796Z,99.99
2018-07-17T02:35:49.000Z,99.99
2018-07-17T02:36:48.792Z,99.99
2018-07-17T02:37:49.246Z,99.99
2018-07-17T02:38:48.812Z,99.99
2018-07-17T02:39:49.007Z,99.99
2018-07-17T02:40:49.006Z,99.99
2018-07-17T02:41:48.812Z,99.99
2018-07-17T02:42:48.823Z,99.99
2018-07-17T02:43:49.017Z,99.99
2018-07-17T02:44:48.835Z,99.99
2018-07-17T02:45:48.826Z,99.99
2018-07-17T02:46:48.836Z,99.99
2018-07-17T02:47:49.037Z,99.99
2018-07-17T02:48:48.834Z,99.99
2018-07-17T02:49:48.860Z,99.99
2018-07-17T02:50:49.043Z,99.99
2018-07-17T02:51:49.059Z,99.99
2018-07-17T02:52:49.049Z,99.99
2018-07-17T02:53:48.870Z,99.99
2018-07-17T02:54:48.868Z,99.99
2018-07-17T02:55:49.059Z,99.99
2018-07-17T02:56:48.873Z,99.99
2018-07-17T02:57:48.864Z,99.99
2018-07-17T02:58:49.069Z,99.99
2018-07-17T02:59:48.872Z,99.99
2018-07-17T03:00:48.873Z,99.99
2018-07-17T03:01:48.876Z,99.99
2018-07-17T03:02:48.881Z,99.99
2018-07-17T03:03:49.094Z,99.99
2018-07-17T03:04:48.887Z,99.99
2018-07-17T03:05:49.099Z,99.99
2018-07-17T03:06:48.899Z,99.99
2018-07-17T03:07:49.120Z,99.99
2018-07-17T03:08:49.113Z,99.99
2018-07-17T03:09:49.104Z,99.99
2018-07-17T03:10:48.921Z,99.99
2018-07-17T03:11:48.907Z,99.99
2018-07-17T03:12:49.128Z,99.99
2018-07-17T03:13:48.914Z,99.99
2018-07-17T03:14:49.117Z,99.99
2018-07-17T03:15:48.920Z,99.99
2018-07-17T03:16:48.921Z,99.99
2018-07-17T03:17:48.929Z,99.99
2018-07-17T03:18:48.960Z,99.99
2018-07-17T03:19:48.941Z,99.99
2018-07-17T03:20:48.949Z,99.99
2018-07-17T03:21:48.941Z,99.99
2018-07-17T03:22:48.943Z,99.99
2018-07-17T03:23:48.948Z,99.99
2018-07-17T03:24:49.151Z,99.99
2018-07-17T03:25:48.981Z,99.99
2018-07-17T03:26:48.956Z,99.99
2018-07-17T03:27:48.978Z,99.99
2018-07-17T03:28:49.167Z,99.99
2018-07-17T03:29:49.181Z,99.99
2018-07-17T03:30:48.985Z,99.99
2018-07-17T03:31:48.981Z,99.99
2018-07-17T03:32:48.989Z,99.99
2018-07-17T03:33:48.978Z,99.99
2018-07-17T03:34:48.992Z,99.99
2018-07-17T03:35:48.989Z,99.99
2018-07-17T03:36:49.003Z,99.99
2018-07-17T03:37:49.203Z,99.99
2018-07-17T03:38:49.195Z,99.99
2018-07-17T03:39:48.995Z,99.99
2018-07-17T03:40:49.201Z,99.99
2018-07-17T03:41:49.031Z,99.99
2018-07-17T03:42:49.017Z,99.99
2018-07-17T03:43:49.023Z,99.99
2018-07-17T03:44:49.026Z,99.99
2018-07-17T03:45:49.016Z,99.99
2018-07-17T03:46:49.029Z,99.99
2018-07-17T03:47:49.021Z,99.99
2018-07-17T03:48:49.033Z,99.99
2018-07-17T03:49:49.041Z,99.99
2018-07-17T03:50:49.043Z,99.99
2018-07-17T03:51:49.040Z,99.99
2018-07-17T03:52:49.067Z,99.99
2018-07-17T03:53:49.051Z,99.99
2018-07-17T03:54:49.056Z,99.99
2018-07-17T03:55:49.052Z,99.99
2018-07-17T03:56:49.051Z,99.99
2018-07-17T03:57:49.053Z,99.99
2018-07-17T03:58:49.060Z,99.99
2018-07-17T03:59:49.062Z,99.99
2018-07-17T04:00:49.076Z,99.99
2018-07-17T04:01:49.077Z,99.99
2018-07-17T04:02:49.308Z,99.99
2018-07-17T04:03:49.277Z,99.99
2018-07-17T04:04:49.293Z,99.99
2018-07-17T04:05:49.081Z,99.99
2018-07-17T04:06:49.287Z,99.99
2018-07-17T04:07:49.088Z,99.99
2018-07-17T04:08:49.222Z,99.99
2018-07-17T04:09:49.111Z,99.99
2018-07-17T04:10:49.312Z,99.99
2018-07-17T04:11:49.100Z,99.99
2018-07-17T04:12:49.119Z,99.99
2018-07-17T04:13:49.110Z,99.99
2018-07-17T04:14:49.111Z,99.99
2018-07-17T04:15:49.115Z,99.99
2018-07-17T04:16:49.129Z,99.99
2018-07-17T04:17:49.141Z,99.99
2018-07-17T04:18:49.137Z,99.99
2018-07-17T04:19:49.146Z,99.99
2018-07-17T04:20:49.147Z,99.99
2018-07-17T04:21:49.135Z,99.99
2018-07-17T04:22:49.142Z,99.99
2018-07-17T04:23:49.156Z,99.99
2018-07-17T04:24:49.145Z,99.99
2018-07-17T04:25:49.161Z,99.99
2018-07-17T04:26:49.178Z,99.99
2018-07-17T04:27:49.161Z,99.99
2018-07-17T04:28:49.169Z,99.99
2018-07-17T04:29:49.447Z,99.99
2018-07-17T04:30:49.182Z,99.99
2018-07-17T04:31:49.271Z,99.99
2018-07-17T04:32:49.176Z,99.99
2018-07-17T04:33:49.188Z,99.99
2018-07-17T04:34:49.189Z,99.99
2018-07-17T04:35:49.386Z,99.99
2018-07-17T04:36:49.190Z,99.99
2018-07-17T04:37:49.396Z,99.99
2018-07-17T04:38:49.198Z,99.99
2018-07-17T04:39:49.403Z,99.99
2018-07-17T04:40:49.215Z,99.99
2018-07-17T04:41:49.205Z,99.99
2018-07-17T04:42:49.213Z,99.99
2018-07-17T04:43:49.229Z,99.99
2018-07-17T04:44:49.221Z,99.99
2018-07-17T04:45:49.223Z,99.99
2018-07-17T04:46:49.225Z,99.99
2018-07-17T04:47:49.431Z,99.99
2018-07-17T04:48:49.231Z,99.99
2018-07-17T04:49:49.441Z,99.99
2018-07-17T04:50:49.239Z,99.99
2018-07-17T04:51:49.242Z,99.99
2018-07-17T04:52:49.465Z,99.99
2018-07-17T04:53:49.286Z,99.99
2018-07-17T04:54:49.266Z,99.99
2018-07-17T04:55:49.462Z,99.99
2018-07-17T04:56:49.261Z,99.99
2018-07-17T04:57:49.466Z,99.99
2018-07-17T04:58:49.269Z,99.99
2018-07-17T04:59:49.499Z,99.99
2018-07-17T05:00:49.289Z,99.99
2018-07-17T05:01:49.329Z,99.99
2018-07-17T05:02:49.281Z,99.99
2018-07-17T05:03:49.289Z,99.99
2018-07-17T05:04:49.306Z,99.99
2018-07-17T05:05:49.290Z,99.99
2018-07-17T05:06:49.310Z,99.99
2018-07-17T05:07:49.299Z,99.99
2018-07-17T05:08:49.525Z,99.99
2018-07-17T05:09:49.322Z,99.99
2018-07-17T05:10:49.327Z,99.99
2018-07-17T05:11:49.346Z,99.99
2018-07-17T05:12:49.384Z,99.99
2018-07-17T05:13:49.319Z,99.99
2018-07-17T05:14:49.331Z,99.99
2018-07-17T05:15:49.327Z,99.99
2018-07-17T05:16:49.358Z,99.99
2018-07-17T05:17:49.585Z,99.99
2018-07-17T05:18:49.340Z,99.99
2018-07-17T05:19:49.351Z,99.99
2018-07-17T05:20:49.393Z,99.99
2018-07-17T05:21:49.346Z,99.99
2018-07-17T05:22:49.384Z,99.99
2018-07-17T05:23:49.357Z,99.99
2018-07-17T05:24:49.558Z,99.99
2018-07-17T05:25:49.563Z,99.99
2018-07-17T05:26:49.362Z,99.99
2018-07-17T05:27:49.377Z,99.99
2018-07-17T05:28:49.383Z,99.99
2018-07-17T05:29:49.401Z,99.99
2018-07-17T05:30:49.395Z,99.99
2018-07-17T05:31:49.402Z,99.99
2018-07-17T05:32:49.613Z,99.99
2018-07-17T05:33:49.428Z,99.99
2018-07-17T05:34:49.412Z,99.99
2018-07-17T05:35:49.395Z,99.99
2018-07-17T05:36:49.400Z,99.99
2018-07-17T05:37:49.403Z,99.99
2018-07-17T05:38:49.408Z,99.99
2018-07-17T05:39:49.420Z,99.99
2018-07-17T05:40:49.616Z,99.99
2018-07-17T05:41:49.621Z,99.99
2018-07-17T05:42:49.634Z,99.99
2018-07-17T05:43:49.439Z,99.99
2018-07-17T05:44:49.428Z,99.99
2018-07-17T05:45:49.434Z,99.99
2018-07-17T05:46:49.437Z,99.99
2018-07-17T05:47:49.439Z,99.99
2018-07-17T05:48:49.456Z,99.99
2018-07-17T05:49:49.459Z,99.99
2018-07-17T05:50:49.465Z,99.99
2018-07-17T05:51:49.505Z,99.99
2018-07-17T05:52:49.461Z,99.99
2018-07-17T05:53:49.467Z,99.99
2018-07-17T05:54:49.468Z,99.99
2018-07-17T05:55:49.482Z,99.99
2018-07-17T05:56:49.490Z,99.99
2018-07-17T05:57:49.484Z,99.99
2018-07-17T05:58:49.489Z,99.99
2018-07-17T05:59:49.499Z,99.99
2018-07-17T06:00:49.495Z,99.99
2018-07-17T06:01:49.507Z,99.99
2018-07-17T06:02:49.515Z,98.72
2018-07-17T06:03:49.507Z,99.01
2018-07-17T06:04:49.511Z,97.57
2018-07-17T06:05:49.531Z,98.68
2018-07-17T06:06:49.542Z,98.97
2018-07-17T06:07:49.528Z,99.16
2018-07-17T06:08:49.524Z,96.94
2018-07-17T06:09:49.559Z,97.62
2018-07-17T06:10:49.569Z,99.16
2018-07-17T06:11:49.761Z,98.97
2018-07-17T06:12:49.573Z,98.87
2018-07-17T06:13:49.568Z,98.58
2018-07-17T06:14:49.557Z,99.16
2018-07-17T06:15:49.579Z,98.19
2018-07-17T06:16:49.585Z,98.68
2018-07-17T06:17:49.788Z,98.10
2018-07-17T06:18:49.593Z,98.72
2018-07-17T06:19:49.578Z,96.12
2018-07-17T06:20:49.595Z,97.28
2018-07-17T06:21:49.586Z,97.96
2018-07-17T06:22:49.590Z,98.05
2018-07-17T06:23:49.596Z,98.05
2018-07-17T06:24:49.799Z,99.02
2018-07-17T06:25:49.615Z,99.50
2018-07-17T06:26:49.608Z,98.05
2018-07-17T06:27:49.613Z,97.57
2018-07-17T06:28:49.616Z,99.98
2018-07-17T06:29:49.631Z,98.92
2018-07-17T06:30:49.627Z,97.96
2018-07-17T06:31:49.629Z,99.79
2018-07-17T06:32:49.707Z,99.99
2018-07-17T06:33:49.639Z,96.99
2018-07-17T06:34:49.643Z,97.09
2018-07-17T06:35:49.649Z,95.84
2018-07-17T06:36:49.652Z,95.84
2018-07-17T06:37:49.863Z,95.74
2018-07-17T06:38:49.688Z,97.57
2018-07-17T06:39:49.668Z,99.99
2018-07-17T06:40:49.674Z,91.64
2018-07-17T06:41:49.878Z,90.68
2018-07-17T06:42:49.693Z,91.55
2018-07-17T06:43:49.699Z,94.34
2018-07-17T06:44:49.895Z,94.44
2018-07-17T06:45:49.699Z,93.96
2018-07-17T06:46:49.700Z,95.26
2018-07-17T06:47:49.915Z,94.58
2018-07-17T06:48:49.723Z,96.41
2018-07-17T06:49:49.731Z,96.80
2018-07-17T06:50:50.065Z,95.84
2018-07-17T06:51:49.723Z,95.16
2018-07-17T06:52:49.741Z,99.99
2018-07-17T06:53:49.945Z,94.29
2018-07-17T06:54:49.751Z,91.60
2018-07-17T06:55:49.746Z,91.78
2018-07-17T06:56:49.750Z,95.36
2018-07-17T06:57:49.972Z,97.77
2018-07-17T06:58:49.972Z,94.63
2018-07-17T06:59:49.775Z,95.26
2018-07-17T07:00:49.781Z,94.68
2018-07-17T07:01:49.789Z,95.26
2018-07-17T07:02:49.791Z,98.63
2018-07-17T07:03:49.786Z,93.13
2018-07-17T07:04:50.018Z,93.52
2018-07-17T07:05:49.792Z,95.54
2018-07-17T07:06:50.023Z,96.89
2018-07-17T07:07:49.831Z,95.64
2018-07-17T07:08:49.825Z,94.39
2018-07-17T07:09:49.830Z,93.71
2018-07-17T07:10:49.816Z,95.84
2018-07-17T07:11:49.825Z,96.12
2018-07-17T07:12:49.848Z,94.78
2018-07-17T07:13:49.850Z,95.36
2018-07-17T07:14:50.042Z,97.19
2018-07-17T07:15:49.843Z,94.39
2018-07-17T07:16:50.070Z,96.12
2018-07-17T07:17:50.061Z,95.74
2018-07-17T07:18:49.866Z,94.78
2018-07-17T07:19:49.861Z,95.06
2018-07-17T07:20:50.070Z,95.16
2018-07-17T07:21:50.072Z,95.36
2018-07-17T07:22:50.079Z,96.12
2018-07-17T07:23:50.084Z,94.68
2018-07-17T07:24:49.884Z,93.81
2018-07-17T07:25:49.906Z,94.39
2018-07-17T07:26:49.908Z,95.54
2018-07-17T07:27:49.911Z,95.01
2018-07-17T07:28:50.112Z,92.89
2018-07-17T07:29:49.927Z,93.57
2018-07-17T07:30:49.921Z,92.99
2018-07-17T07:31:50.126Z,95.98
2018-07-17T07:32:49.939Z,90.48
2018-07-17T07:33:50.135Z,91.83
2018-07-17T07:34:50.149Z,90.77
2018-07-17T07:35:50.142Z,91.16
2018-07-17T07:36:50.160Z,89.51
2018-07-17T07:37:50.159Z,91.35
2018-07-17T07:38:49.965Z,91.20
2018-07-17T07:39:49.957Z,90.77
2018-07-17T07:40:49.964Z,90.87
2018-07-17T07:41:49.986Z,91.39
2018-07-17T07:42:50.256Z,91.35
2018-07-17T07:43:49.986Z,96.89
2018-07-17T07:44:50.189Z,94.20
2018-07-17T07:45:49.999Z,95.54
2018-07-17T07:46:50.017Z,94.05
2018-07-17T07:47:50.202Z,92.50
2018-07-17T07:48:50.014Z,90.38
2018-07-17T07:49:50.011Z,90.96
2018-07-17T07:50:50.030Z,90.00
2018-07-17T07:51:50.021Z,91.54
2018-07-17T07:52:50.025Z,89.51
2018-07-17T07:53:50.030Z,90.09
2018-07-17T07:54:50.045Z,91.16
2018-07-17T07:55:50.048Z,89.81
2018-07-17T07:56:50.043Z,90.48
2018-07-17T07:57:50.050Z,91.35
2018-07-17T07:58:50.080Z,89.90
2018-07-17T07:59:50.270Z,91.54
2018-07-17T08:00:50.066Z,90.87
2018-07-17T08:01:50.080Z,92.70
2018-07-17T08:02:50.290Z,91.25
2018-07-17T08:03:50.351Z,87.97
2018-07-17T08:04:50.285Z,90.29
2018-07-17T08:05:50.089Z,88.59
2018-07-17T08:06:50.103Z,90.05
2018-07-17T08:07:50.110Z,88.89
2018-07-17T08:08:50.114Z,87.40
2018-07-17T08:09:50.115Z,89.65
2018-07-17T08:10:50.127Z,88.31
2018-07-17T08:11:50.395Z,87.44
2018-07-17T08:12:50.135Z,86.66
2018-07-17T08:13:50.143Z,89.17
2018-07-17T08:14:50.146Z,90.14
2018-07-17T08:15:50.138Z,87.73
2018-07-17T08:16:50.158Z,88.21
2018-07-17T08:17:50.173Z,86.57
2018-07-17T08:18:50.154Z,87.73
2018-07-17T08:19:50.361Z,86.08
2018-07-17T08:20:50.178Z,88.21
2018-07-17T08:21:50.196Z,88.21
2018-07-17T08:22:50.178Z,89.47
2018-07-17T08:23:50.185Z,87.82
2018-07-17T08:24:50.190Z,86.28
2018-07-17T08:25:50.190Z,85.94
2018-07-17T08:26:50.196Z,84.00
2018-07-17T08:27:50.201Z,85.26
2018-07-17T08:28:50.213Z,84.05
2018-07-17T08:29:50.293Z,83.75
2018-07-17T08:30:50.419Z,81.82
2018-07-17T08:31:50.421Z,83.12
2018-07-17T08:32:50.227Z,80.28
2018-07-17T08:33:50.431Z,80.57
2018-07-17T08:34:50.247Z,82.69
2018-07-17T08:35:50.245Z,80.12
2018-07-17T08:36:50.457Z,81.96
2018-07-17T08:37:50.261Z,80.80
2018-07-17T08:38:50.473Z,80.80
2018-07-17T08:39:50.262Z,81.38
2018-07-17T08:40:50.279Z,82.45
2018-07-17T08:41:50.291Z,82.31
2018-07-17T08:42:50.282Z,83.18
2018-07-17T08:43:50.482Z,83.18
2018-07-17T08:44:50.287Z,82.50
2018-07-17T08:45:50.495Z,82.31
2018-07-17T08:46:50.297Z,82.60
2018-07-17T08:47:50.305Z,82.69
2018-07-17T08:48:50.317Z,83.18
2018-07-17T08:49:50.539Z,84.82
2018-07-17T08:50:50.319Z,85.40
2018-07-17T08:51:50.331Z,82.02
2018-07-17T08:52:50.338Z,81.38
2018-07-17T08:53:50.332Z,82.64
2018-07-17T08:54:50.345Z,81.67
2018-07-17T08:55:50.347Z,83.99
2018-07-17T08:56:50.349Z,83.22
2018-07-17T08:57:50.351Z,83.22
2018-07-17T08:58:50.378Z,84.09
2018-07-17T08:59:50.572Z,82.78
2018-07-17T09:00:50.393Z,82.83
2018-07-17T09:01:50.390Z,79.78
2018-07-17T09:02:50.396Z,82.20
2018-07-17T09:03:50.399Z,79.00
2018-07-17T09:04:50.393Z,80.65
2018-07-17T09:05:50.457Z,81.71
2018-07-17T09:06:50.410Z,81.81
2018-07-17T09:07:50.409Z,79.20
2018-07-17T09:08:50.428Z,78.33
2018-07-17T09:09:50.417Z,80.07
2018-07-17T09:10:50.426Z,81.23
2018-07-17T09:11:50.432Z,80.55
2018-07-17T09:12:50.437Z,80.46
2018-07-17T09:13:50.445Z,81.37
2018-07-17T09:14:50.469Z,77.50
2018-07-17T09:15:50.451Z,76.91
2018-07-17T09:16:50.461Z,75.56
2018-07-17T09:17:50.464Z,77.11
2018-07-17T09:18:50.509Z,77.59
2018-07-17T09:19:50.506Z,77.01
2018-07-17T09:20:50.481Z,77.20
2018-07-17T09:21:50.489Z,74.49
2018-07-17T09:22:50.494Z,75.07
2018-07-17T09:23:50.499Z,75.56
2018-07-17T09:24:50.504Z,76.43
2018-07-17T09:25:50.511Z,75.98
2018-07-17T09:26:50.518Z,76.08
2018-07-17T09:27:50.519Z,76.56
2018-07-17T09:28:50.524Z,75.60
2018-07-17T09:29:50.531Z,74.53
2018-07-17T09:30:50.745Z,74.82
2018-07-17T09:31:50.745Z,74.24
2018-07-17T09:32:50.549Z,75.31
2018-07-17T09:33:50.555Z,73.27
2018-07-17T09:34:50.763Z,74.73
2018-07-17T09:35:50.575Z,74.05
2018-07-17T09:36:50.581Z,74.92
2018-07-17T09:37:50.587Z,76.08
2018-07-17T09:38:50.611Z,75.50
2018-07-17T09:39:50.588Z,74.34
2018-07-17T09:40:50.808Z,76.66
2018-07-17T09:41:50.607Z,76.95
2018-07-17T09:42:50.811Z,76.37
2018-07-17T09:43:50.614Z,77.73
2018-07-17T09:44:50.618Z,75.40
2018-07-17T09:45:50.624Z,75.50
2018-07-17T09:46:50.832Z,75.79
2018-07-17T09:47:50.649Z,74.05
2018-07-17T09:48:50.854Z,76.46
2018-07-17T09:49:50.850Z,75.11
2018-07-17T09:50:50.652Z,73.37
2018-07-17T09:51:50.658Z,71.34
2018-07-17T09:52:50.675Z,70.31
2018-07-17T09:53:50.871Z,71.18
2018-07-17T09:54:50.686Z,72.83
2018-07-17T09:55:50.883Z,70.70
2018-07-17T09:56:50.699Z,70.01
2018-07-17T09:57:50.705Z,71.08
2018-07-17T09:58:50.697Z,68.82
2018-07-17T09:59:50.719Z,68.18
2018-07-17T10:00:50.720Z,68.76
2018-07-17T10:01:50.919Z,68.27
2018-07-17T10:02:50.950Z,68.37
2018-07-17T10:03:50.727Z,70.11
2018-07-17T10:04:50.935Z,70.27
2018-07-17T10:05:50.954Z,68.85
2018-07-17T10:06:50.767Z,68.91
2018-07-17T10:07:50.751Z,70.86
2018-07-17T10:08:50.979Z,71.24
2018-07-17T10:09:50.968Z,71.92
2018-07-17T10:10:50.783Z,71.44
2018-07-17T10:11:51.004Z,66.72
2018-07-17T10:12:50.792Z,67.69
2018-07-17T10:13:50.798Z,67.50
2018-07-17T10:14:50.806Z,67.02
2018-07-17T10:15:50.821Z,68.76
2018-07-17T10:16:50.832Z,70.40
2018-07-17T10:17:50.812Z,70.50
2018-07-17T10:18:50.831Z,68.18
2018-07-17T10:19:51.081Z,66.24
2018-07-17T10:20:51.035Z,65.79
2018-07-17T10:21:50.849Z,66.85
2018-07-17T10:22:51.056Z,66.43
2018-07-17T10:23:50.849Z,65.37
2018-07-17T10:24:50.867Z,67.21
2018-07-17T10:25:50.874Z,66.82
2018-07-17T10:26:50.877Z,68.66
2018-07-17T10:27:50.909Z,68.99
2018-07-17T10:28:51.095Z,67.34
2018-07-17T10:29:51.099Z,67.92
2018-07-17T10:30:50.892Z,68.89
2018-07-17T10:31:50.895Z,68.40
2018-07-17T10:32:50.911Z,67.63
2018-07-17T10:33:50.908Z,68.02
2018-07-17T10:34:51.119Z,69.27
2018-07-17T10:35:50.919Z,67.82
2018-07-17T10:36:51.132Z,67.24
2018-07-17T10:37:50.937Z,65.69
2018-07-17T10:38:50.942Z,62.88
2018-07-17T10:39:50.946Z,62.40
2018-07-17T10:40:51.156Z,64.43
2018-07-17T10:41:50.958Z,64.04
2018-07-17T10:42:50.975Z,62.79
2018-07-17T10:43:50.979Z,62.69
2018-07-17T10:44:50.992Z,64.24
2018-07-17T10:45:50.981Z,64.34
2018-07-17T10:46:50.991Z,64.04
2018-07-17T10:47:51.199Z,63.56
2018-07-17T10:48:51.014Z,61.65
2018-07-17T10:49:51.011Z,63.75
2018-07-17T10:50:51.216Z,63.07
2018-07-17T10:51:51.020Z,61.24
2018-07-17T10:52:51.047Z,60.58
2018-07-17T10:53:51.234Z,62.82
2018-07-17T10:54:51.053Z,61.36
2018-07-17T10:55:51.045Z,60.58
2018-07-17T10:56:51.051Z,59.81
2018-07-17T10:57:51.057Z,59.33
2018-07-17T10:58:51.066Z,58.16
2018-07-17T10:59:51.272Z,59.52
2018-07-17T11:00:51.091Z,58.94
2018-07-17T11:01:51.285Z,60.49
2018-07-17T11:02:51.103Z,60.97
2018-07-17T11:03:51.097Z,61.68
2018-07-17T11:04:51.104Z,61.36
2018-07-17T11:05:51.122Z,62.43
2018-07-17T11:06:51.332Z,63.01
2018-07-17T11:07:51.122Z,61.17
2018-07-17T11:08:51.140Z,63.30
2018-07-17T11:09:51.137Z,61.26
2018-07-17T11:10:51.144Z,61.75
2018-07-17T11:11:51.350Z,59.71
2018-07-17T11:12:51.151Z,59.64
2018-07-17T11:13:51.158Z,59.74
2018-07-17T11:14:51.166Z,60.91
2018-07-17T11:15:51.372Z,61.88
2018-07-17T11:16:51.182Z,63.04
2018-07-17T11:17:51.183Z,62.46
2018-07-17T11:18:51.193Z,60.52
2018-07-17T11:19:51.196Z,60.68
2018-07-17T11:20:51.415Z,60.81
2018-07-17T11:21:51.230Z,60.78
2018-07-17T11:22:51.430Z,62.55
2018-07-17T11:23:51.226Z,61.58
2018-07-17T11:24:51.240Z,63.59
2018-07-17T11:25:51.247Z,60.97
2018-07-17T11:26:51.252Z,60.39
2018-07-17T11:27:51.259Z,62.23
2018-07-17T11:28:51.276Z,59.94
2018-07-17T11:29:51.274Z,60.03
2018-07-17T11:30:51.279Z,61.58
2018-07-17T11:31:51.277Z,60.03
2018-07-17T11:32:51.483Z,57.42
2018-07-17T11:33:51.300Z,55.41
2018-07-17T11:34:51.304Z,57.08
2018-07-17T11:35:51.312Z,56.21
2018-07-17T11:36:51.305Z,53.69
2018-07-17T11:37:51.343Z,52.25
2018-07-17T11:38:51.373Z,53.03
2018-07-17T11:39:51.340Z,54.20
2018-07-17T11:40:51.550Z,52.84
2018-07-17T11:41:51.547Z,52.35
2018-07-17T11:42:51.352Z,53.69
2018-07-17T11:43:51.365Z,54.44
2018-07-17T11:44:51.360Z,54.53
2018-07-17T11:45:51.369Z,54.72
2018-07-17T11:46:51.389Z,54.82
2018-07-17T11:47:51.439Z,55.89
2018-07-17T11:48:51.588Z,54.82
2018-07-17T11:49:51.408Z,55.50
2018-07-17T11:50:51.404Z,56.64
2018-07-17T11:51:51.605Z,55.67
2018-07-17T11:52:51.410Z,55.77
2018-07-17T11:53:51.421Z,55.77
2018-07-17T11:54:51.627Z,56.28
2018-07-17T11:55:51.433Z,54.82
2018-07-17T11:56:51.640Z,54.92
2018-07-17T11:57:51.445Z,53.95
2018-07-17T11:58:51.483Z,55.79
2018-07-17T11:59:51.467Z,56.67
2018-07-17T12:00:51.474Z,55.99
2018-07-17T12:01:51.492Z,57.44
2018-07-17T12:02:51.478Z,55.99
2018-07-17T12:03:51.481Z,54.85
2018-07-17T12:04:51.490Z,51.93
2018-07-17T12:05:51.780Z,53.69
2018-07-17T12:06:51.515Z,53.03
2018-07-17T12:07:51.521Z,53.81
2018-07-17T12:08:51.526Z,53.13
2018-07-17T12:09:51.724Z,53.13
2018-07-17T12:10:51.731Z,54.20
2018-07-17T12:11:51.743Z,54.94
2018-07-17T12:12:51.912Z,54.56
2018-07-17T12:13:51.558Z,53.22
2018-07-17T12:14:51.757Z,53.91
2018-07-17T12:15:51.561Z,52.45
2018-07-17T12:16:51.579Z,52.45
2018-07-17T12:17:51.574Z,51.09
2018-07-17T12:18:51.793Z,51.57
2018-07-17T12:19:51.704Z,51.67
2018-07-17T12:20:51.597Z,52.25
2018-07-17T12:21:51.603Z,53.13
2018-07-17T12:22:51.620Z,51.38
2018-07-17T12:23:51.614Z,52.42
2018-07-17T12:24:51.637Z,53.30
2018-07-17T12:25:51.628Z,53.08
2018-07-17T12:26:51.644Z,52.42
2018-07-17T12:27:51.663Z,53.75
2018-07-17T12:28:51.649Z,55.02
2018-07-17T12:29:51.670Z,52.98
2018-07-17T12:30:51.866Z,54.34
2018-07-17T12:31:51.669Z,52.91
2018-07-17T12:32:51.676Z,52.06
2018-07-17T12:33:51.704Z,53.03
2018-07-17T12:34:51.903Z,55.85
2018-07-17T12:35:51.716Z,54.97
2018-07-17T12:36:51.905Z,53.00
2018-07-17T12:37:51.748Z,53.20
2018-07-17T12:38:51.919Z,51.67
2018-07-17T12:39:51.763Z,52.33
2018-07-17T12:40:51.738Z,52.42
2018-07-17T12:41:51.736Z,53.39
2018-07-17T12:42:51.742Z,53.30
2018-07-17T12:43:51.761Z,52.91
2018-07-17T12:44:51.955Z,54.56
2018-07-17T12:45:51.760Z,53.59
2018-07-17T12:46:51.767Z,53.88
2018-07-17T12:47:51.772Z,54.85
2018-07-17T12:48:51.780Z,52.91
2018-07-17T12:49:51.851Z,50.87
2018-07-17T12:50:52.013Z,51.35
2018-07-17T12:51:51.800Z,51.35
2018-07-17T12:52:51.810Z,51.75